sensor_id;sensor_type;location;lat;lon;timestamp;temperature;humidity
83729;DHT22;73707;56.480;-2.840;2024-01-10T00:01:33;6.10;99.90
83729;DHT22;73707;56.480;-2.840;2024-01-10T00:03:59;6.20;99.90
83729;DHT22;73707;56.480;-2.840;2024-01-10T00:06:25;6.20;99.90
83729;DHT22;73707;56.480;-2.840;2024-01-10T00:08:51;6.20;99.90
83729;DHT22;73707;56.480;-2.840;2024-01-10T00:11:16;6.20;99.90
83729;DHT22;73707;56.480;-2.840;2024-01-10T00:13:42;6.20;99.90
83729;DHT22;73707;56.480;-2.840;2024-01-10T00:16:08;6.20;99.90
83729;DHT22;73707;56.480;-2.840;2024-01-10T00:18:34;6.20;99.90
83729;DHT22;73707;56.480;-2.840;2024-01-10T00:21:00;6.20;99.90
83729;DHT22;73707;56.480;-2.840;2024-01-10T00:23:26;6.20;99.90
83729;DHT22;73707;56.480;-2.840;2024-01-10T00:25:51;6.20;99.90
83729;DHT22;73707;56.480;-2.840;2024-01-10T00:28:17;6.20;99.90
83729;DHT22;73707;56.480;-2.840;2024-01-10T00:30:44;6.20;99.90
83729;DHT22;73707;56.480;-2.840;2024-01-10T00:33:10;6.20;99.90
83729;DHT22;73707;56.480;-2.840;2024-01-10T00:35:37;6.20;99.90
83729;DHT22;73707;56.480;-2.840;2024-01-10T00:38:02;6.20;99.90
83729;DHT22;73707;56.480;-2.840;2024-01-10T00:40:28;6.20;99.90
83729;DHT22;73707;56.480;-2.840;2024-01-10T00:42:56;6.30;99.90
83729;DHT22;73707;56.480;-2.840;2024-01-10T00:45:22;6.20;99.90
83729;DHT22;73707;56.480;-2.840;2024-01-10T00:47:51;6.20;99.90
83729;DHT22;73707;56.480;-2.840;2024-01-10T00:50:17;6.20;99.90
83729;DHT22;73707;56.480;-2.840;2024-01-10T00:52:44;6.20;99.90
83729;DHT22;73707;56.480;-2.840;2024-01-10T00:55:10;6.20;99.90
83729;DHT22;73707;56.480;-2.840;2024-01-10T00:57:35;6.20;99.90
83729;DHT22;73707;56.480;-2.840;2024-01-10T01:00:09;6.20;99.90
83729;DHT22;73707;56.480;-2.840;2024-01-10T01:02:36;6.20;99.90
83729;DHT22;73707;56.480;-2.840;2024-01-10T01:05:05;6.20;99.90
83729;DHT22;73707;56.480;-2.840;2024-01-10T01:07:32;6.30;99.90
83729;DHT22;73707;56.480;-2.840;2024-01-10T01:09:58;6.30;99.90
83729;DHT22;73707;56.480;-2.840;2024-01-10T01:12:25;6.20;99.90
83729;DHT22;73707;56.480;-2.840;2024-01-10T01:14:50;6.20;99.90
83729;DHT22;73707;56.480;-2.840;2024-01-10T01:17:16;6.20;99.90
83729;DHT22;73707;56.480;-2.840;2024-01-10T01:19:42;6.20;99.90
83729;DHT22;73707;56.480;-2.840;2024-01-10T01:22:07;6.20;99.90
83729;DHT22;73707;56.480;-2.840;2024-01-10T01:24:33;6.20;99.90
83729;DHT22;73707;56.480;-2.840;2024-01-10T01:26:59;6.20;99.90
83729;DHT22;73707;56.480;-2.840;2024-01-10T01:29:25;6.20;99.90
83729;DHT22;73707;56.480;-2.840;2024-01-10T01:31:50;6.10;99.90
83729;DHT22;73707;56.480;-2.840;2024-01-10T01:34:17;6.10;99.90
83729;DHT22;73707;56.480;-2.840;2024-01-10T01:36:43;6.10;99.90
83729;DHT22;73707;56.480;-2.840;2024-01-10T01:39:09;6.10;99.90
83729;DHT22;73707;56.480;-2.840;2024-01-10T01:41:34;6.10;99.90
83729;DHT22;73707;56.480;-2.840;2024-01-10T01:44:00;6.10;99.90
83729;DHT22;73707;56.480;-2.840;2024-01-10T01:46:26;6.00;99.90
83729;DHT22;73707;56.480;-2.840;2024-01-10T01:48:53;6.00;99.90
83729;DHT22;73707;56.480;-2.840;2024-01-10T01:51:20;6.00;99.90
83729;DHT22;73707;56.480;-2.840;2024-01-10T01:53:48;6.00;99.90
83729;DHT22;73707;56.480;-2.840;2024-01-10T01:56:15;6.00;99.90
83729;DHT22;73707;56.480;-2.840;2024-01-10T01:58:43;6.00;99.90
83729;DHT22;73707;56.480;-2.840;2024-01-10T02:01:10;6.00;99.90
83729;DHT22;73707;56.480;-2.840;2024-01-10T02:03:37;6.00;99.90
83729;DHT22;73707;56.480;-2.840;2024-01-10T02:06:03;5.90;99.90
83729;DHT22;73707;56.480;-2.840;2024-01-10T02:08:33;5.90;99.90
83729;DHT22;73707;56.480;-2.840;2024-01-10T02:11:03;5.90;99.90
83729;DHT22;73707;56.480;-2.840;2024-01-10T02:13:29;5.90;99.90
83729;DHT22;73707;56.480;-2.840;2024-01-10T02:15:55;5.90;99.90
83729;DHT22;73707;56.480;-2.840;2024-01-10T02:18:22;5.90;99.90
83729;DHT22;73707;56.480;-2.840;2024-01-10T02:20:47;5.90;99.90
83729;DHT22;73707;56.480;-2.840;2024-01-10T02:23:13;5.90;99.90
83729;DHT22;73707;56.480;-2.840;2024-01-10T02:25:40;5.90;99.90
83729;DHT22;73707;56.480;-2.840;2024-01-10T02:28:06;5.90;99.90
83729;DHT22;73707;56.480;-2.840;2024-01-10T02:30:35;5.90;99.90
83729;DHT22;73707;56.480;-2.840;2024-01-10T02:33:01;5.90;99.90
83729;DHT22;73707;56.480;-2.840;2024-01-10T02:35:27;5.90;99.90
83729;DHT22;73707;56.480;-2.840;2024-01-10T02:37:54;5.90;99.90
83729;DHT22;73707;56.480;-2.840;2024-01-10T02:40:23;5.90;99.90
83729;DHT22;73707;56.480;-2.840;2024-01-10T02:42:48;5.90;99.90
83729;DHT22;73707;56.480;-2.840;2024-01-10T02:45:16;5.90;99.90
83729;DHT22;73707;56.480;-2.840;2024-01-10T02:47:42;5.90;99.90
83729;DHT22;73707;56.480;-2.840;2024-01-10T02:50:08;5.90;99.90
83729;DHT22;73707;56.480;-2.840;2024-01-10T02:52:34;5.90;99.90
83729;DHT22;73707;56.480;-2.840;2024-01-10T02:54:59;5.90;99.90
83729;DHT22;73707;56.480;-2.840;2024-01-10T02:57:25;5.90;99.90
83729;DHT22;73707;56.480;-2.840;2024-01-10T02:59:51;5.90;99.90
83729;DHT22;73707;56.480;-2.840;2024-01-10T03:02:16;5.90;99.90
83729;DHT22;73707;56.480;-2.840;2024-01-10T03:04:43;5.90;99.90
83729;DHT22;73707;56.480;-2.840;2024-01-10T03:07:10;5.80;99.90
83729;DHT22;73707;56.480;-2.840;2024-01-10T03:09:36;5.90;99.90
83729;DHT22;73707;56.480;-2.840;2024-01-10T03:12:02;5.90;99.90
83729;DHT22;73707;56.480;-2.840;2024-01-10T03:14:27;5.80;99.90
83729;DHT22;73707;56.480;-2.840;2024-01-10T03:16:53;5.90;99.90
83729;DHT22;73707;56.480;-2.840;2024-01-10T03:19:19;5.90;99.90
83729;DHT22;73707;56.480;-2.840;2024-01-10T03:21:45;5.90;99.90
83729;DHT22;73707;56.480;-2.840;2024-01-10T03:24:10;5.90;99.90
83729;DHT22;73707;56.480;-2.840;2024-01-10T03:26:36;5.80;99.90
83729;DHT22;73707;56.480;-2.840;2024-01-10T03:29:02;5.90;99.90
83729;DHT22;73707;56.480;-2.840;2024-01-10T03:31:28;5.90;99.90
83729;DHT22;73707;56.480;-2.840;2024-01-10T03:33:58;5.90;99.90
83729;DHT22;73707;56.480;-2.840;2024-01-10T03:36:24;5.90;99.90
83729;DHT22;73707;56.480;-2.840;2024-01-10T03:38:50;5.90;99.90
83729;DHT22;73707;56.480;-2.840;2024-01-10T03:41:17;5.90;99.90
83729;DHT22;73707;56.480;-2.840;2024-01-10T03:43:43;5.90;99.90
83729;DHT22;73707;56.480;-2.840;2024-01-10T03:46:10;5.90;99.90
83729;DHT22;73707;56.480;-2.840;2024-01-10T03:48:35;5.90;99.90
83729;DHT22;73707;56.480;-2.840;2024-01-10T03:51:02;5.90;99.90
83729;DHT22;73707;56.480;-2.840;2024-01-10T03:53:28;5.90;99.90
83729;DHT22;73707;56.480;-2.840;2024-01-10T03:55:55;5.90;99.90
83729;DHT22;73707;56.480;-2.840;2024-01-10T03:58:20;5.90;99.90
83729;DHT22;73707;56.480;-2.840;2024-01-10T04:00:46;5.90;99.90
83729;DHT22;73707;56.480;-2.840;2024-01-10T04:03:12;5.90;99.90
83729;DHT22;73707;56.480;-2.840;2024-01-10T04:05:37;5.90;99.90
83729;DHT22;73707;56.480;-2.840;2024-01-10T04:08:03;6.00;99.90
83729;DHT22;73707;56.480;-2.840;2024-01-10T04:10:29;5.90;99.90
83729;DHT22;73707;56.480;-2.840;2024-01-10T04:12:55;5.90;99.90
83729;DHT22;73707;56.480;-2.840;2024-01-10T04:15:20;5.90;99.90
83729;DHT22;73707;56.480;-2.840;2024-01-10T04:17:46;5.90;99.90
83729;DHT22;73707;56.480;-2.840;2024-01-10T04:20:13;5.90;99.90
83729;DHT22;73707;56.480;-2.840;2024-01-10T04:22:38;5.90;99.90
83729;DHT22;73707;56.480;-2.840;2024-01-10T04:25:05;5.90;99.90
83729;DHT22;73707;56.480;-2.840;2024-01-10T04:27:31;5.90;99.90
83729;DHT22;73707;56.480;-2.840;2024-01-10T04:29:57;5.90;99.90
83729;DHT22;73707;56.480;-2.840;2024-01-10T04:32:23;5.90;99.90
83729;DHT22;73707;56.480;-2.840;2024-01-10T04:34:48;5.90;99.90
83729;DHT22;73707;56.480;-2.840;2024-01-10T04:37:14;5.90;99.90
83729;DHT22;73707;56.480;-2.840;2024-01-10T04:39:40;5.90;99.90
83729;DHT22;73707;56.480;-2.840;2024-01-10T04:42:08;5.90;99.90
83729;DHT22;73707;56.480;-2.840;2024-01-10T04:44:36;5.90;99.90
83729;DHT22;73707;56.480;-2.840;2024-01-10T04:47:01;5.90;99.90
83729;DHT22;73707;56.480;-2.840;2024-01-10T04:49:27;5.90;99.90
83729;DHT22;73707;56.480;-2.840;2024-01-10T04:51:53;5.90;99.90
83729;DHT22;73707;56.480;-2.840;2024-01-10T04:54:19;5.90;99.90
83729;DHT22;73707;56.480;-2.840;2024-01-10T04:56:44;5.90;99.90
83729;DHT22;73707;56.480;-2.840;2024-01-10T04:59:10;5.90;99.90
83729;DHT22;73707;56.480;-2.840;2024-01-10T05:01:36;5.90;99.90
83729;DHT22;73707;56.480;-2.840;2024-01-10T05:04:02;5.90;99.90
83729;DHT22;73707;56.480;-2.840;2024-01-10T05:06:28;6.00;99.90
83729;DHT22;73707;56.480;-2.840;2024-01-10T05:08:54;6.00;99.90
83729;DHT22;73707;56.480;-2.840;2024-01-10T05:11:23;6.00;99.90
83729;DHT22;73707;56.480;-2.840;2024-01-10T05:13:51;6.00;99.90
83729;DHT22;73707;56.480;-2.840;2024-01-10T05:16:16;6.00;99.90
83729;DHT22;73707;56.480;-2.840;2024-01-10T05:18:42;6.00;99.90
83729;DHT22;73707;56.480;-2.840;2024-01-10T05:21:08;6.00;99.90
83729;DHT22;73707;56.480;-2.840;2024-01-10T05:23:34;6.00;99.90
83729;DHT22;73707;56.480;-2.840;2024-01-10T05:26:01;6.00;99.90
83729;DHT22;73707;56.480;-2.840;2024-01-10T05:28:26;6.00;99.90
83729;DHT22;73707;56.480;-2.840;2024-01-10T05:30:52;6.00;99.90
83729;DHT22;73707;56.480;-2.840;2024-01-10T05:33:19;6.00;99.90
83729;DHT22;73707;56.480;-2.840;2024-01-10T05:35:45;6.00;99.90
83729;DHT22;73707;56.480;-2.840;2024-01-10T05:38:11;6.00;99.90
83729;DHT22;73707;56.480;-2.840;2024-01-10T05:40:37;6.00;99.90
83729;DHT22;73707;56.480;-2.840;2024-01-10T05:43:03;6.00;99.90
83729;DHT22;73707;56.480;-2.840;2024-01-10T05:45:28;6.10;99.90
83729;DHT22;73707;56.480;-2.840;2024-01-10T05:47:54;6.10;99.90
83729;DHT22;73707;56.480;-2.840;2024-01-10T05:50:20;6.10;99.90
83729;DHT22;73707;56.480;-2.840;2024-01-10T05:52:47;6.10;99.90
83729;DHT22;73707;56.480;-2.840;2024-01-10T05:55:12;6.10;99.90
83729;DHT22;73707;56.480;-2.840;2024-01-10T05:57:38;6.10;99.90
83729;DHT22;73707;56.480;-2.840;2024-01-10T06:00:05;6.10;99.90
83729;DHT22;73707;56.480;-2.840;2024-01-10T06:02:41;6.10;99.90
83729;DHT22;73707;56.480;-2.840;2024-01-10T06:05:10;6.10;99.90
83729;DHT22;73707;56.480;-2.840;2024-01-10T06:07:39;6.10;99.90
83729;DHT22;73707;56.480;-2.840;2024-01-10T06:10:08;6.20;99.90
83729;DHT22;73707;56.480;-2.840;2024-01-10T06:12:35;6.20;99.90
83729;DHT22;73707;56.480;-2.840;2024-01-10T06:15:01;6.20;99.90
83729;DHT22;73707;56.480;-2.840;2024-01-10T06:17:27;6.20;99.90
83729;DHT22;73707;56.480;-2.840;2024-01-10T06:19:53;6.20;99.90
83729;DHT22;73707;56.480;-2.840;2024-01-10T06:22:18;6.20;99.90
83729;DHT22;73707;56.480;-2.840;2024-01-10T06:24:50;6.20;99.90
83729;DHT22;73707;56.480;-2.840;2024-01-10T06:27:16;6.20;99.90
83729;DHT22;73707;56.480;-2.840;2024-01-10T06:29:42;6.20;99.90
83729;DHT22;73707;56.480;-2.840;2024-01-10T06:32:08;6.20;99.90
83729;DHT22;73707;56.480;-2.840;2024-01-10T06:34:34;6.20;99.90
83729;DHT22;73707;56.480;-2.840;2024-01-10T06:36:59;6.20;99.90
83729;DHT22;73707;56.480;-2.840;2024-01-10T06:39:25;6.20;99.90
83729;DHT22;73707;56.480;-2.840;2024-01-10T06:41:51;6.20;99.90
83729;DHT22;73707;56.480;-2.840;2024-01-10T06:44:17;6.20;99.90
83729;DHT22;73707;56.480;-2.840;2024-01-10T06:46:45;6.20;99.90
83729;DHT22;73707;56.480;-2.840;2024-01-10T06:49:11;6.20;99.90
83729;DHT22;73707;56.480;-2.840;2024-01-10T06:51:37;6.20;99.90
83729;DHT22;73707;56.480;-2.840;2024-01-10T06:54:03;6.20;99.90
83729;DHT22;73707;56.480;-2.840;2024-01-10T06:56:30;6.20;99.90
83729;DHT22;73707;56.480;-2.840;2024-01-10T06:58:56;6.20;99.90
83729;DHT22;73707;56.480;-2.840;2024-01-10T07:01:22;6.30;99.90
83729;DHT22;73707;56.480;-2.840;2024-01-10T07:03:48;6.30;99.90
83729;DHT22;73707;56.480;-2.840;2024-01-10T07:06:14;6.30;99.90
83729;DHT22;73707;56.480;-2.840;2024-01-10T07:08:43;6.30;99.90
83729;DHT22;73707;56.480;-2.840;2024-01-10T07:11:12;6.30;99.90
83729;DHT22;73707;56.480;-2.840;2024-01-10T07:13:38;6.30;99.90
83729;DHT22;73707;56.480;-2.840;2024-01-10T07:16:04;6.30;99.90
83729;DHT22;73707;56.480;-2.840;2024-01-10T07:18:30;6.30;99.90
83729;DHT22;73707;56.480;-2.840;2024-01-10T07:20:56;6.30;99.90
83729;DHT22;73707;56.480;-2.840;2024-01-10T07:23:22;6.30;99.90
83729;DHT22;73707;56.480;-2.840;2024-01-10T07:25:50;6.30;99.90
83729;DHT22;73707;56.480;-2.840;2024-01-10T07:28:16;6.30;99.90
83729;DHT22;73707;56.480;-2.840;2024-01-10T07:30:43;6.40;99.90
83729;DHT22;73707;56.480;-2.840;2024-01-10T07:33:10;6.30;99.90
83729;DHT22;73707;56.480;-2.840;2024-01-10T07:35:36;6.40;99.90
83729;DHT22;73707;56.480;-2.840;2024-01-10T07:38:01;6.30;99.90
83729;DHT22;73707;56.480;-2.840;2024-01-10T07:40:27;6.40;99.90
83729;DHT22;73707;56.480;-2.840;2024-01-10T07:42:53;6.40;99.90
83729;DHT22;73707;56.480;-2.840;2024-01-10T07:45:18;6.40;99.90
83729;DHT22;73707;56.480;-2.840;2024-01-10T07:47:44;6.40;99.90
83729;DHT22;73707;56.480;-2.840;2024-01-10T07:50:12;6.40;99.90
83729;DHT22;73707;56.480;-2.840;2024-01-10T07:52:40;6.40;99.90
83729;DHT22;73707;56.480;-2.840;2024-01-10T07:55:06;6.40;99.90
83729;DHT22;73707;56.480;-2.840;2024-01-10T07:57:33;6.40;99.90
83729;DHT22;73707;56.480;-2.840;2024-01-10T07:59:59;6.40;99.90
83729;DHT22;73707;56.480;-2.840;2024-01-10T08:02:25;6.40;99.90
83729;DHT22;73707;56.480;-2.840;2024-01-10T08:04:52;6.40;99.90
83729;DHT22;73707;56.480;-2.840;2024-01-10T08:07:18;6.40;99.90
83729;DHT22;73707;56.480;-2.840;2024-01-10T08:09:43;6.40;99.90
83729;DHT22;73707;56.480;-2.840;2024-01-10T08:12:09;6.40;99.90
83729;DHT22;73707;56.480;-2.840;2024-01-10T08:14:37;6.40;99.90
83729;DHT22;73707;56.480;-2.840;2024-01-10T08:17:03;6.40;99.90
83729;DHT22;73707;56.480;-2.840;2024-01-10T08:19:29;6.40;99.90
83729;DHT22;73707;56.480;-2.840;2024-01-10T08:21:54;6.40;99.90
83729;DHT22;73707;56.480;-2.840;2024-01-10T08:24:20;6.40;99.90
83729;DHT22;73707;56.480;-2.840;2024-01-10T08:26:48;6.40;99.90
83729;DHT22;73707;56.480;-2.840;2024-01-10T08:29:20;6.40;99.90
83729;DHT22;73707;56.480;-2.840;2024-01-10T08:31:47;6.40;99.90
83729;DHT22;73707;56.480;-2.840;2024-01-10T08:34:13;6.40;99.90
83729;DHT22;73707;56.480;-2.840;2024-01-10T08:36:39;6.40;99.90
83729;DHT22;73707;56.480;-2.840;2024-01-10T08:39:04;6.40;99.90
83729;DHT22;73707;56.480;-2.840;2024-01-10T08:41:30;6.50;99.90
83729;DHT22;73707;56.480;-2.840;2024-01-10T08:43:56;6.50;99.90
83729;DHT22;73707;56.480;-2.840;2024-01-10T08:46:22;6.50;99.90
83729;DHT22;73707;56.480;-2.840;2024-01-10T08:48:50;6.50;99.90
83729;DHT22;73707;56.480;-2.840;2024-01-10T08:51:15;6.50;99.90
83729;DHT22;73707;56.480;-2.840;2024-01-10T08:53:43;6.50;99.90
83729;DHT22;73707;56.480;-2.840;2024-01-10T08:56:09;6.50;99.90
83729;DHT22;73707;56.480;-2.840;2024-01-10T08:58:35;6.50;99.90
83729;DHT22;73707;56.480;-2.840;2024-01-10T09:01:02;6.50;99.90
83729;DHT22;73707;56.480;-2.840;2024-01-10T09:03:29;6.50;99.90
83729;DHT22;73707;56.480;-2.840;2024-01-10T09:05:55;6.50;99.90
83729;DHT22;73707;56.480;-2.840;2024-01-10T09:08:21;6.50;99.90
83729;DHT22;73707;56.480;-2.840;2024-01-10T09:10:46;6.60;99.90
83729;DHT22;73707;56.480;-2.840;2024-01-10T09:13:14;6.60;99.90
83729;DHT22;73707;56.480;-2.840;2024-01-10T09:15:40;6.60;99.90
83729;DHT22;73707;56.480;-2.840;2024-01-10T09:18:06;6.60;99.90
83729;DHT22;73707;56.480;-2.840;2024-01-10T09:20:32;6.60;99.90
83729;DHT22;73707;56.480;-2.840;2024-01-10T09:22:57;6.60;99.90
83729;DHT22;73707;56.480;-2.840;2024-01-10T09:25:25;6.60;99.90
83729;DHT22;73707;56.480;-2.840;2024-01-10T09:27:51;6.70;99.90
83729;DHT22;73707;56.480;-2.840;2024-01-10T09:30:17;6.70;99.90
83729;DHT22;73707;56.480;-2.840;2024-01-10T09:32:43;6.70;99.90
83729;DHT22;73707;56.480;-2.840;2024-01-10T09:35:10;6.70;99.90
83729;DHT22;73707;56.480;-2.840;2024-01-10T09:37:36;6.70;99.90
83729;DHT22;73707;56.480;-2.840;2024-01-10T09:40:02;6.70;99.90
83729;DHT22;73707;56.480;-2.840;2024-01-10T09:42:29;6.70;99.90
83729;DHT22;73707;56.480;-2.840;2024-01-10T09:44:57;6.70;99.90
83729;DHT22;73707;56.480;-2.840;2024-01-10T09:47:22;6.80;99.90
83729;DHT22;73707;56.480;-2.840;2024-01-10T09:49:48;6.70;99.90
83729;DHT22;73707;56.480;-2.840;2024-01-10T09:53:02;6.80;99.90
83729;DHT22;73707;56.480;-2.840;2024-01-10T09:55:34;6.80;99.90
83729;DHT22;73707;56.480;-2.840;2024-01-10T09:58:05;6.80;99.90
83729;DHT22;73707;56.480;-2.840;2024-01-10T10:00:33;6.90;99.90
83729;DHT22;73707;56.480;-2.840;2024-01-10T10:03:02;6.90;99.90
83729;DHT22;73707;56.480;-2.840;2024-01-10T10:05:29;6.90;99.90
83729;DHT22;73707;56.480;-2.840;2024-01-10T10:07:55;6.90;99.90
83729;DHT22;73707;56.480;-2.840;2024-01-10T10:10:23;6.90;99.90
83729;DHT22;73707;56.480;-2.840;2024-01-10T10:12:51;6.90;99.90
83729;DHT22;73707;56.480;-2.840;2024-01-10T10:15:23;7.00;99.90
83729;DHT22;73707;56.480;-2.840;2024-01-10T10:17:51;7.00;99.90
83729;DHT22;73707;56.480;-2.840;2024-01-10T10:20:26;7.00;99.90
83729;DHT22;73707;56.480;-2.840;2024-01-10T10:25:27;7.10;99.90
83729;DHT22;73707;56.480;-2.840;2024-01-10T10:27:54;7.10;99.90
83729;DHT22;73707;56.480;-2.840;2024-01-10T10:30:19;7.10;99.90
83729;DHT22;73707;56.480;-2.840;2024-01-10T10:32:45;7.10;99.90
83729;DHT22;73707;56.480;-2.840;2024-01-10T10:35:11;7.20;99.90
83729;DHT22;73707;56.480;-2.840;2024-01-10T10:37:37;7.20;99.90
83729;DHT22;73707;56.480;-2.840;2024-01-10T10:40:03;7.20;99.90
83729;DHT22;73707;56.480;-2.840;2024-01-10T10:42:29;7.20;99.90
83729;DHT22;73707;56.480;-2.840;2024-01-10T10:45:00;7.20;99.90
83729;DHT22;73707;56.480;-2.840;2024-01-10T10:47:30;7.20;99.90
83729;DHT22;73707;56.480;-2.840;2024-01-10T10:49:59;7.30;99.90
83729;DHT22;73707;56.480;-2.840;2024-01-10T10:52:27;7.30;99.90
83729;DHT22;73707;56.480;-2.840;2024-01-10T10:54:56;7.30;99.90
83729;DHT22;73707;56.480;-2.840;2024-01-10T10:57:25;7.40;99.90
83729;DHT22;73707;56.480;-2.840;2024-01-10T10:59:53;7.40;99.90
83729;DHT22;73707;56.480;-2.840;2024-01-10T11:02:21;7.40;99.90
83729;DHT22;73707;56.480;-2.840;2024-01-10T11:04:54;7.40;99.90
83729;DHT22;73707;56.480;-2.840;2024-01-10T11:07:20;7.40;99.90
83729;DHT22;73707;56.480;-2.840;2024-01-10T11:09:47;7.40;99.90
83729;DHT22;73707;56.480;-2.840;2024-01-10T11:20:57;7.50;99.90
83729;DHT22;73707;56.480;-2.840;2024-01-10T11:23:42;7.50;99.90
83729;DHT22;73707;56.480;-2.840;2024-01-10T11:26:15;7.50;99.90
83729;DHT22;73707;56.480;-2.840;2024-01-10T11:28:41;7.50;99.90
83729;DHT22;73707;56.480;-2.840;2024-01-10T11:31:08;7.50;99.90
83729;DHT22;73707;56.480;-2.840;2024-01-10T11:33:39;7.50;99.90
83729;DHT22;73707;56.480;-2.840;2024-01-10T11:36:14;7.40;99.90
83729;DHT22;73707;56.480;-2.840;2024-01-10T11:38:49;7.50;99.90
83729;DHT22;73707;56.480;-2.840;2024-01-10T11:41:33;7.50;99.90
83729;DHT22;73707;56.480;-2.840;2024-01-10T11:46:52;7.60;99.90
83729;DHT22;73707;56.480;-2.840;2024-01-10T11:49:19;7.60;99.90
83729;DHT22;73707;56.480;-2.840;2024-01-10T11:51:47;7.60;99.90
83729;DHT22;73707;56.480;-2.840;2024-01-10T11:59:43;7.70;99.90
83729;DHT22;73707;56.480;-2.840;2024-01-10T12:02:11;7.70;99.90
83729;DHT22;73707;56.480;-2.840;2024-01-10T12:04:38;7.80;99.90
83729;DHT22;73707;56.480;-2.840;2024-01-10T12:07:05;7.80;99.90
83729;DHT22;73707;56.480;-2.840;2024-01-10T12:09:31;7.80;99.90
83729;DHT22;73707;56.480;-2.840;2024-01-10T12:11:58;7.90;99.90
83729;DHT22;73707;56.480;-2.840;2024-01-10T12:14:24;7.90;99.90
83729;DHT22;73707;56.480;-2.840;2024-01-10T12:16:53;7.90;99.90
83729;DHT22;73707;56.480;-2.840;2024-01-10T12:19:19;7.90;99.90
83729;DHT22;73707;56.480;-2.840;2024-01-10T12:21:45;8.00;99.90
83729;DHT22;73707;56.480;-2.840;2024-01-10T12:24:10;8.00;99.90
83729;DHT22;73707;56.480;-2.840;2024-01-10T12:26:51;8.00;99.90
83729;DHT22;73707;56.480;-2.840;2024-01-10T12:29:19;8.00;99.90
83729;DHT22;73707;56.480;-2.840;2024-01-10T12:31:46;8.00;99.90
83729;DHT22;73707;56.480;-2.840;2024-01-10T12:34:12;8.00;99.90
83729;DHT22;73707;56.480;-2.840;2024-01-10T12:36:39;8.10;99.90
83729;DHT22;73707;56.480;-2.840;2024-01-10T12:39:05;8.10;99.90
83729;DHT22;73707;56.480;-2.840;2024-01-10T12:41:34;8.10;99.90
83729;DHT22;73707;56.480;-2.840;2024-01-10T12:44:01;8.10;99.90
83729;DHT22;73707;56.480;-2.840;2024-01-10T12:46:30;8.10;99.90
83729;DHT22;73707;56.480;-2.840;2024-01-10T12:49:03;8.10;99.90
83729;DHT22;73707;56.480;-2.840;2024-01-10T12:51:31;8.10;99.90
83729;DHT22;73707;56.480;-2.840;2024-01-10T12:53:58;8.20;99.90
83729;DHT22;73707;56.480;-2.840;2024-01-10T12:56:24;8.20;99.90
83729;DHT22;73707;56.480;-2.840;2024-01-10T12:58:50;8.20;99.90
83729;DHT22;73707;56.480;-2.840;2024-01-10T13:01:16;8.20;99.90
83729;DHT22;73707;56.480;-2.840;2024-01-10T13:03:42;8.20;99.90
83729;DHT22;73707;56.480;-2.840;2024-01-10T13:06:09;8.20;99.90
83729;DHT22;73707;56.480;-2.840;2024-01-10T13:08:34;8.30;99.90
83729;DHT22;73707;56.480;-2.840;2024-01-10T13:11:00;8.30;99.90
83729;DHT22;73707;56.480;-2.840;2024-01-10T13:13:26;8.30;99.90
83729;DHT22;73707;56.480;-2.840;2024-01-10T13:15:52;8.30;99.90
83729;DHT22;73707;56.480;-2.840;2024-01-10T13:18:18;8.30;99.90
83729;DHT22;73707;56.480;-2.840;2024-01-10T13:20:44;8.30;99.90
83729;DHT22;73707;56.480;-2.840;2024-01-10T13:23:10;8.30;99.90
83729;DHT22;73707;56.480;-2.840;2024-01-10T13:25:36;8.30;99.90
83729;DHT22;73707;56.480;-2.840;2024-01-10T13:28:06;8.30;99.90
83729;DHT22;73707;56.480;-2.840;2024-01-10T13:30:32;8.30;99.90
83729;DHT22;73707;56.480;-2.840;2024-01-10T13:32:57;8.40;99.90
83729;DHT22;73707;56.480;-2.840;2024-01-10T13:35:24;8.40;99.90
83729;DHT22;73707;56.480;-2.840;2024-01-10T13:37:50;8.40;99.90
83729;DHT22;73707;56.480;-2.840;2024-01-10T13:40:16;8.40;99.90
83729;DHT22;73707;56.480;-2.840;2024-01-10T13:42:43;8.40;99.90
83729;DHT22;73707;56.480;-2.840;2024-01-10T13:45:09;8.40;99.90
83729;DHT22;73707;56.480;-2.840;2024-01-10T13:47:41;8.40;99.90
83729;DHT22;73707;56.480;-2.840;2024-01-10T13:50:07;8.40;99.90
83729;DHT22;73707;56.480;-2.840;2024-01-10T13:52:34;8.50;99.90
83729;DHT22;73707;56.480;-2.840;2024-01-10T13:55:00;8.50;99.90
83729;DHT22;73707;56.480;-2.840;2024-01-10T13:57:26;8.50;99.90
83729;DHT22;73707;56.480;-2.840;2024-01-10T13:59:52;8.50;99.90
83729;DHT22;73707;56.480;-2.840;2024-01-10T14:02:22;8.50;99.90
83729;DHT22;73707;56.480;-2.840;2024-01-10T14:04:48;8.50;99.90
83729;DHT22;73707;56.480;-2.840;2024-01-10T14:07:13;8.50;99.90
83729;DHT22;73707;56.480;-2.840;2024-01-10T14:09:39;8.50;99.90
83729;DHT22;73707;56.480;-2.840;2024-01-10T14:12:05;8.50;99.90
83729;DHT22;73707;56.480;-2.840;2024-01-10T14:14:31;8.50;99.90
83729;DHT22;73707;56.480;-2.840;2024-01-10T14:16:57;8.50;99.90
83729;DHT22;73707;56.480;-2.840;2024-01-10T14:19:23;8.50;99.90
83729;DHT22;73707;56.480;-2.840;2024-01-10T14:21:49;8.50;99.90
83729;DHT22;73707;56.480;-2.840;2024-01-10T14:24:14;8.40;99.90
83729;DHT22;73707;56.480;-2.840;2024-01-10T14:26:41;8.50;99.90
83729;DHT22;73707;56.480;-2.840;2024-01-10T14:29:07;8.50;99.90
83729;DHT22;73707;56.480;-2.840;2024-01-10T14:31:34;8.50;99.90
83729;DHT22;73707;56.480;-2.840;2024-01-10T14:34:00;8.50;99.90
83729;DHT22;73707;56.480;-2.840;2024-01-10T14:36:25;8.50;99.90
83729;DHT22;73707;56.480;-2.840;2024-01-10T14:38:51;8.50;99.90
83729;DHT22;73707;56.480;-2.840;2024-01-10T14:41:17;8.60;99.90
83729;DHT22;73707;56.480;-2.840;2024-01-10T14:43:42;8.50;99.90
83729;DHT22;73707;56.480;-2.840;2024-01-10T14:46:09;8.50;99.90
83729;DHT22;73707;56.480;-2.840;2024-01-10T14:48:35;8.60;99.90
83729;DHT22;73707;56.480;-2.840;2024-01-10T14:51:02;8.60;99.90
83729;DHT22;73707;56.480;-2.840;2024-01-10T14:53:27;8.60;99.90
83729;DHT22;73707;56.480;-2.840;2024-01-10T14:55:53;8.60;99.90
83729;DHT22;73707;56.480;-2.840;2024-01-10T14:58:19;8.60;99.90
83729;DHT22;73707;56.480;-2.840;2024-01-10T15:00:45;8.60;99.90
83729;DHT22;73707;56.480;-2.840;2024-01-10T15:03:11;8.60;99.90
83729;DHT22;73707;56.480;-2.840;2024-01-10T15:05:39;8.60;99.90
83729;DHT22;73707;56.480;-2.840;2024-01-10T15:08:05;8.50;99.90
83729;DHT22;73707;56.480;-2.840;2024-01-10T15:10:33;8.50;99.90
83729;DHT22;73707;56.480;-2.840;2024-01-10T15:12:59;8.50;99.90
83729;DHT22;73707;56.480;-2.840;2024-01-10T15:15:25;8.50;99.90
83729;DHT22;73707;56.480;-2.840;2024-01-10T15:17:51;8.50;99.90
83729;DHT22;73707;56.480;-2.840;2024-01-10T15:20:16;8.50;99.90
83729;DHT22;73707;56.480;-2.840;2024-01-10T15:22:42;8.50;99.90
83729;DHT22;73707;56.480;-2.840;2024-01-10T15:25:08;8.50;99.90
83729;DHT22;73707;56.480;-2.840;2024-01-10T15:27:34;8.50;99.90
83729;DHT22;73707;56.480;-2.840;2024-01-10T15:30:00;8.50;99.90
83729;DHT22;73707;56.480;-2.840;2024-01-10T15:32:26;8.50;99.90
83729;DHT22;73707;56.480;-2.840;2024-01-10T15:34:53;8.50;99.90
83729;DHT22;73707;56.480;-2.840;2024-01-10T15:37:19;8.50;99.90
83729;DHT22;73707;56.480;-2.840;2024-01-10T15:39:46;8.50;99.90
83729;DHT22;73707;56.480;-2.840;2024-01-10T15:42:11;8.50;99.90
83729;DHT22;73707;56.480;-2.840;2024-01-10T15:44:42;8.50;99.90
83729;DHT22;73707;56.480;-2.840;2024-01-10T15:47:08;8.50;99.90